sensor_id;sensor_type;location;lat;lon;timestamp;pressure;altitude;pressure_sealevel;temperature;humidity
76519;BME280;67029;51.054;13.798;2024-02-15T00:02:19;100688.01;;;13.24;58.93
76519;BME280;67029;51.054;13.798;2024-02-15T00:04:49;100682.73;;;13.12;58.98
76519;BME280;67029;51.054;13.798;2024-02-15T00:07:19;100679.49;;;12.93;59.22
76519;BME280;67029;51.054;13.798;2024-02-15T00:09:50;100679.83;;;12.69;60.07
76519;BME280;67029;51.054;13.798;2024-02-15T00:12:20;100686.45;;;12.57;60.09
76519;BME280;67029;51.054;13.798;2024-02-15T00:14:50;100683.91;;;12.48;60.48
76519;BME280;67029;51.054;13.798;2024-02-15T00:17:20;100680.20;;;12.40;60.93
76519;BME280;67029;51.054;13.798;2024-02-15T00:19:51;100681.13;;;12.46;60.86
76519;BME280;67029;51.054;13.798;2024-02-15T00:22:21;100687.28;;;12.53;60.64
76519;BME280;67029;51.054;13.798;2024-02-15T00:24:51;100680.70;;;12.46;60.84
76519;BME280;67029;51.054;13.798;2024-02-15T00:27:21;100680.94;;;12.37;60.94
76519;BME280;67029;51.054;13.798;2024-02-15T00:29:51;100683.94;;;12.41;60.97
76519;BME280;67029;51.054;13.798;2024-02-15T00:32:21;100681.69;;;12.33;60.99
76519;BME280;67029;51.054;13.798;2024-02-15T00:34:51;100677.31;;;12.34;61.06
76519;BME280;67029;51.054;13.798;2024-02-15T00:37:21;100679.25;;;12.36;61.09
76519;BME280;67029;51.054;13.798;2024-02-15T00:39:51;100680.12;;;12.35;61.14
76519;BME280;67029;51.054;13.798;2024-02-15T00:42:21;100681.62;;;12.30;61.36
76519;BME280;67029;51.054;13.798;2024-02-15T00:44:51;100674.40;;;12.38;61.42
76519;BME280;67029;51.054;13.798;2024-02-15T00:47:21;100669.80;;;12.44;61.23
76519;BME280;67029;51.054;13.798;2024-02-15T00:49:51;100673.50;;;12.52;61.32
76519;BME280;67029;51.054;13.798;2024-02-15T00:52:21;100676.42;;;12.59;61.01
76519;BME280;67029;51.054;13.798;2024-02-15T00:54:51;100668.36;;;12.60;60.78
76519;BME280;67029;51.054;13.798;2024-02-15T00:57:21;100669.75;;;12.52;60.93
76519;BME280;67029;51.054;13.798;2024-02-15T00:59:51;100669.98;;;12.48;61.17
76519;BME280;67029;51.054;13.798;2024-02-15T01:02:21;100678.05;;;12.54;61.09
76519;BME280;67029;51.054;13.798;2024-02-15T01:04:51;100672.64;;;12.58;61.20
76519;BME280;67029;51.054;13.798;2024-02-15T01:07:21;100676.73;;;12.44;61.39
76519;BME280;67029;51.054;13.798;2024-02-15T01:09:51;100673.02;;;12.49;61.61
76519;BME280;67029;51.054;13.798;2024-02-15T01:12:21;100674.69;;;12.52;61.33
76519;BME280;67029;51.054;13.798;2024-02-15T01:14:51;100672.57;;;12.58;61.53
76519;BME280;67029;51.054;13.798;2024-02-15T01:17:21;100675.03;;;12.62;61.13
76519;BME280;67029;51.054;13.798;2024-02-15T01:19:51;100676.52;;;12.54;61.17
76519;BME280;67029;51.054;13.798;2024-02-15T01:22:21;100675.86;;;12.42;61.55
76519;BME280;67029;51.054;13.798;2024-02-15T01:24:51;100673.98;;;12.31;61.68
76519;BME280;67029;51.054;13.798;2024-02-15T01:27:21;100669.89;;;12.29;61.72
76519;BME280;67029;51.054;13.798;2024-02-15T01:29:51;100668.36;;;12.29;61.85
76519;BME280;67029;51.054;13.798;2024-02-15T01:32:21;100665.14;;;12.29;62.04
76519;BME280;67029;51.054;13.798;2024-02-15T01:34:51;100664.00;;;12.37;62.21
76519;BME280;67029;51.054;13.798;2024-02-15T01:37:21;100662.92;;;12.41;61.82
76519;BME280;67029;51.054;13.798;2024-02-15T01:39:51;100660.91;;;12.43;61.77
76519;BME280;67029;51.054;13.798;2024-02-15T01:42:21;100661.59;;;12.44;61.64
76519;BME280;67029;51.054;13.798;2024-02-15T01:44:52;100661.98;;;12.40;61.75
76519;BME280;67029;51.054;13.798;2024-02-15T01:47:22;100658.95;;;12.44;61.70
76519;BME280;67029;51.054;13.798;2024-02-15T01:49:52;100663.02;;;12.49;61.57
76519;BME280;67029;51.054;13.798;2024-02-15T01:52:23;100656.82;;;12.55;61.69
76519;BME280;67029;51.054;13.798;2024-02-15T01:54:53;100657.77;;;12.65;61.79
76519;BME280;67029;51.054;13.798;2024-02-15T01:57:24;100659.58;;;12.68;61.55
76519;BME280;67029;51.054;13.798;2024-02-15T01:59:54;100654.62;;;12.69;61.37
76519;BME280;67029;51.054;13.798;2024-02-15T02:02:28;100657.44;;;12.74;61.58
76519;BME280;67029;51.054;13.798;2024-02-15T02:04:54;100652.87;;;12.78;61.44
76519;BME280;67029;51.054;13.798;2024-02-15T02:07:24;100645.48;;;12.79;61.22
76519;BME280;67029;51.054;13.798;2024-02-15T02:09:54;100649.38;;;12.85;61.40
76519;BME280;67029;51.054;13.798;2024-02-15T02:12:24;100651.27;;;12.88;61.23
76519;BME280;67029;51.054;13.798;2024-02-15T02:14:54;100649.65;;;12.89;61.22
76519;BME280;67029;51.054;13.798;2024-02-15T02:17:24;100649.30;;;12.93;61.29
76519;BME280;67029;51.054;13.798;2024-02-15T02:19:54;100649.83;;;12.92;61.10
76519;BME280;67029;51.054;13.798;2024-02-15T02:22:24;100657.44;;;12.94;61.07
76519;BME280;67029;51.054;13.798;2024-02-15T02:25:06;100653.61;;;12.94;60.92
76519;BME280;67029;51.054;13.798;2024-02-15T02:27:27;100650.89;;;12.95;60.97
76519;BME280;67029;51.054;13.798;2024-02-15T02:29:55;100646.30;;;12.94;61.03
76519;BME280;67029;51.054;13.798;2024-02-15T02:32:26;100647.95;;;12.93;61.12
76519;BME280;67029;51.054;13.798;2024-02-15T02:34:56;100651.84;;;12.89;61.26
76519;BME280;67029;51.054;13.798;2024-02-15T02:37:26;100645.73;;;12.85;61.22
76519;BME280;67029;51.054;13.798;2024-02-15T02:39:56;100646.52;;;12.83;61.38
76519;BME280;67029;51.054;13.798;2024-02-15T02:42:26;100647.73;;;12.81;61.32
76519;BME280;67029;51.054;13.798;2024-02-15T02:44:56;100644.35;;;12.86;61.38
76519;BME280;67029;51.054;13.798;2024-02-15T02:47:26;100653.69;;;12.90;61.49
76519;BME280;67029;51.054;13.798;2024-02-15T02:49:56;100651.39;;;12.94;61.23
76519;BME280;67029;51.054;13.798;2024-02-15T02:52:26;100645.47;;;12.95;61.19
76519;BME280;67029;51.054;13.798;2024-02-15T02:54:56;100644.70;;;13.00;61.22
76519;BME280;67029;51.054;13.798;2024-02-15T02:57:26;100642.95;;;13.02;61.07
76519;BME280;67029;51.054;13.798;2024-02-15T02:59:56;100645.11;;;13.04;61.04
76519;BME280;67029;51.054;13.798;2024-02-15T03:02:26;100643.87;;;13.08;60.92
76519;BME280;67029;51.054;13.798;2024-02-15T03:04:56;100649.34;;;13.10;60.90
76519;BME280;67029;51.054;13.798;2024-02-15T03:07:26;100648.55;;;13.08;61.01
76519;BME280;67029;51.054;13.798;2024-02-15T03:09:56;100651.66;;;13.09;60.95
76519;BME280;67029;51.054;13.798;2024-02-15T03:12:26;100646.20;;;13.14;60.82
76519;BME280;67029;51.054;13.798;2024-02-15T03:14:56;100644.81;;;13.15;60.78
76519;BME280;67029;51.054;13.798;2024-02-15T03:17:26;100642.68;;;13.08;61.11
76519;BME280;67029;51.054;13.798;2024-02-15T03:19:59;100643.11;;;13.07;61.05
76519;BME280;67029;51.054;13.798;2024-02-15T03:22:27;100640.52;;;13.09;61.00
76519;BME280;67029;51.054;13.798;2024-02-15T03:24:57;100636.78;;;13.01;61.21
76519;BME280;67029;51.054;13.798;2024-02-15T03:27:27;100631.91;;;13.07;61.30
76519;BME280;67029;51.054;13.798;2024-02-15T03:29:57;100637.61;;;13.06;61.27
76519;BME280;67029;51.054;13.798;2024-02-15T03:32:27;100636.50;;;13.12;61.15
76519;BME280;67029;51.054;13.798;2024-02-15T03:34:57;100634.74;;;13.14;61.27
76519;BME280;67029;51.054;13.798;2024-02-15T03:37:27;100635.67;;;13.05;61.41
76519;BME280;67029;51.054;13.798;2024-02-15T03:39:57;100633.65;;;13.06;61.43
76519;BME280;67029;51.054;13.798;2024-02-15T03:42:27;100632.59;;;13.12;61.66
76519;BME280;67029;51.054;13.798;2024-02-15T03:44:57;100638.45;;;13.15;61.35
76519;BME280;67029;51.054;13.798;2024-02-15T03:47:27;100637.81;;;13.17;61.19
76519;BME280;67029;51.054;13.798;2024-02-15T03:49:57;100636.83;;;13.15;61.18
76519;BME280;67029;51.054;13.798;2024-02-15T03:52:28;100641.08;;;12.98;61.80
76519;BME280;67029;51.054;13.798;2024-02-15T03:54:58;100642.26;;;12.85;62.01
76519;BME280;67029;51.054;13.798;2024-02-15T03:57:28;100642.13;;;12.91;62.16
76519;BME280;67029;51.054;13.798;2024-02-15T03:59:58;100644.68;;;12.95;61.89
76519;BME280;67029;51.054;13.798;2024-02-15T04:02:28;100642.66;;;13.00;61.71
76519;BME280;67029;51.054;13.798;2024-02-15T04:04:58;100646.77;;;13.07;61.73
76519;BME280;67029;51.054;13.798;2024-02-15T04:07:28;100644.92;;;13.13;61.55
76519;BME280;67029;51.054;13.798;2024-02-15T04:09:58;100644.19;;;13.13;61.48
76519;BME280;67029;51.054;13.798;2024-02-15T04:12:28;100649.05;;;13.12;61.46
76519;BME280;67029;51.054;13.798;2024-02-15T04:14:58;100648.30;;;13.02;61.67
76519;BME280;67029;51.054;13.798;2024-02-15T04:17:29;100651.45;;;13.02;61.88
76519;BME280;67029;51.054;13.798;2024-02-15T04:19:59;100651.14;;;12.99;61.76
76519;BME280;67029;51.054;13.798;2024-02-15T04:22:29;100650.78;;;13.06;62.07
76519;BME280;67029;51.054;13.798;2024-02-15T04:24:59;100650.15;;;13.11;61.69
76519;BME280;67029;51.054;13.798;2024-02-15T04:27:29;100650.73;;;13.17;61.56
76519;BME280;67029;51.054;13.798;2024-02-15T04:29:59;100650.97;;;13.21;61.48
76519;BME280;67029;51.054;13.798;2024-02-15T04:32:29;100648.34;;;13.25;61.55
76519;BME280;67029;51.054;13.798;2024-02-15T04:34:59;100654.26;;;13.29;61.39
76519;BME280;67029;51.054;13.798;2024-02-15T04:37:29;100653.47;;;13.31;61.14
76519;BME280;67029;51.054;13.798;2024-02-15T04:39:59;100656.75;;;13.33;61.08
76519;BME280;67029;51.054;13.798;2024-02-15T04:42:30;100657.72;;;13.35;61.03
76519;BME280;67029;51.054;13.798;2024-02-15T04:45:01;100649.67;;;13.38;60.96
76519;BME280;67029;51.054;13.798;2024-02-15T04:47:31;100648.47;;;13.43;61.16
76519;BME280;67029;51.054;13.798;2024-02-15T04:50:01;100655.47;;;13.32;61.23
76519;BME280;67029;51.054;13.798;2024-02-15T04:52:31;100656.80;;;13.14;61.51
76519;BME280;67029;51.054;13.798;2024-02-15T04:55:02;100653.92;;;13.05;61.72
76519;BME280;67029;51.054;13.798;2024-02-15T04:57:32;100658.34;;;13.05;61.77
76519;BME280;67029;51.054;13.798;2024-02-15T05:00:02;100658.25;;;13.04;61.94
76519;BME280;67029;51.054;13.798;2024-02-15T05:02:32;100664.02;;;13.00;61.96
76519;BME280;67029;51.054;13.798;2024-02-15T05:05:03;100664.33;;;13.07;61.95
76519;BME280;67029;51.054;13.798;2024-02-15T05:07:33;100667.66;;;13.13;61.73
76519;BME280;67029;51.054;13.798;2024-02-15T05:10:04;100664.55;;;13.17;61.56
76519;BME280;67029;51.054;13.798;2024-02-15T05:12:34;100663.81;;;13.21;61.44
76519;BME280;67029;51.054;13.798;2024-02-15T05:15:04;100662.19;;;13.22;61.49
76519;BME280;67029;51.054;13.798;2024-02-15T05:17:34;100659.02;;;13.10;61.69
76519;BME280;67029;51.054;13.798;2024-02-15T05:20:05;100663.47;;;12.93;62.23
76519;BME280;67029;51.054;13.798;2024-02-15T05:22:34;100665.17;;;12.92;62.30
76519;BME280;67029;51.054;13.798;2024-02-15T05:25:06;100668.72;;;12.85;63.02
76519;BME280;67029;51.054;13.798;2024-02-15T05:27:35;100669.82;;;12.88;62.74
76519;BME280;67029;51.054;13.798;2024-02-15T05:30:05;100676.84;;;12.99;62.48
76519;BME280;67029;51.054;13.798;2024-02-15T05:32:35;100669.17;;;13.06;62.28
76519;BME280;67029;51.054;13.798;2024-02-15T05:35:06;100670.66;;;13.14;62.14
76519;BME280;67029;51.054;13.798;2024-02-15T05:37:36;100672.05;;;13.16;61.89
76519;BME280;67029;51.054;13.798;2024-02-15T05:40:07;100670.64;;;13.23;61.83
76519;BME280;67029;51.054;13.798;2024-02-15T05:42:37;100673.84;;;13.28;61.73
76519;BME280;67029;51.054;13.798;2024-02-15T05:45:29;100676.96;;;13.32;61.65
76519;BME280;67029;51.054;13.798;2024-02-15T05:47:37;100676.23;;;13.34;61.50
76519;BME280;67029;51.054;13.798;2024-02-15T05:50:07;100680.73;;;13.33;61.46
76519;BME280;67029;51.054;13.798;2024-02-15T05:52:37;100683.11;;;13.34;61.49
76519;BME280;67029;51.054;13.798;2024-02-15T05:55:08;100677.07;;;13.20;61.90
76519;BME280;67029;51.054;13.798;2024-02-15T05:57:38;100676.70;;;13.12;62.11
76519;BME280;67029;51.054;13.798;2024-02-15T06:00:08;100678.91;;;13.08;62.18
76519;BME280;67029;51.054;13.798;2024-02-15T06:02:38;100679.59;;;12.92;62.80
76519;BME280;67029;51.054;13.798;2024-02-15T06:05:08;100684.28;;;12.91;62.87
76519;BME280;67029;51.054;13.798;2024-02-15T06:07:38;100682.22;;;12.93;62.79
76519;BME280;67029;51.054;13.798;2024-02-15T06:10:09;100686.22;;;12.92;62.75
76519;BME280;67029;51.054;13.798;2024-02-15T06:12:39;100695.12;;;12.98;62.74
76519;BME280;67029;51.054;13.798;2024-02-15T06:15:09;100699.45;;;13.07;62.57
76519;BME280;67029;51.054;13.798;2024-02-15T06:17:40;100708.41;;;13.14;62.34
76519;BME280;67029;51.054;13.798;2024-02-15T06:20:11;100705.91;;;13.21;62.20
76519;BME280;67029;51.054;13.798;2024-02-15T06:22:40;100704.45;;;13.26;62.07
76519;BME280;67029;51.054;13.798;2024-02-15T06:25:10;100709.20;;;13.32;61.90
76519;BME280;67029;51.054;13.798;2024-02-15T06:27:41;100705.05;;;13.36;61.91
76519;BME280;67029;51.054;13.798;2024-02-15T06:30:12;100707.25;;;13.41;62.12
76519;BME280;67029;51.054;13.798;2024-02-15T06:32:41;100716.47;;;13.46;62.11
76519;BME280;67029;51.054;13.798;2024-02-15T06:35:11;100722.67;;;13.47;62.05
76519;BME280;67029;51.054;13.798;2024-02-15T06:37:41;100723.11;;;13.47;62.02
76519;BME280;67029;51.054;13.798;2024-02-15T06:40:11;100724.26;;;13.49;61.99
76519;BME280;67029;51.054;13.798;2024-02-15T06:42:41;100723.12;;;13.50;62.03
76519;BME280;67029;51.054;13.798;2024-02-15T06:45:11;100726.31;;;13.52;62.04
76519;BME280;67029;51.054;13.798;2024-02-15T06:47:41;100728.84;;;13.53;62.07
76519;BME280;67029;51.054;13.798;2024-02-15T06:50:11;100731.78;;;13.55;62.16
76519;BME280;67029;51.054;13.798;2024-02-15T06:52:41;100724.47;;;13.46;62.37
76519;BME280;67029;51.054;13.798;2024-02-15T06:55:11;100722.95;;;13.36;62.80
76519;BME280;67029;51.054;13.798;2024-02-15T06:57:41;100724.55;;;13.37;62.84
76519;BME280;67029;51.054;13.798;2024-02-15T07:00:12;100720.88;;;13.24;63.28
76519;BME280;67029;51.054;13.798;2024-02-15T07:02:42;100718.72;;;13.11;63.72
76519;BME280;67029;51.054;13.798;2024-02-15T07:05:12;100720.71;;;13.03;64.12
76519;BME280;67029;51.054;13.798;2024-02-15T07:07:42;100726.88;;;12.91;64.54
76519;BME280;67029;51.054;13.798;2024-02-15T07:10:12;100719.49;;;12.86;64.61
76519;BME280;67029;51.054;13.798;2024-02-15T07:12:42;100721.97;;;12.74;65.14
76519;BME280;67029;51.054;13.798;2024-02-15T07:15:12;100717.51;;;12.82;64.94
76519;BME280;67029;51.054;13.798;2024-02-15T07:17:42;100714.56;;;12.90;64.68
76519;BME280;67029;51.054;13.798;2024-02-15T07:20:12;100713.23;;;12.94;64.86
76519;BME280;67029;51.054;13.798;2024-02-15T07:22:42;100711.75;;;12.97;64.49
76519;BME280;67029;51.054;13.798;2024-02-15T07:25:12;100714.23;;;13.05;64.80
76519;BME280;67029;51.054;13.798;2024-02-15T07:27:42;100709.53;;;13.12;64.31
76519;BME280;67029;51.054;13.798;2024-02-15T07:30:13;100708.69;;;13.07;64.62
76519;BME280;67029;51.054;13.798;2024-02-15T07:32:43;100711.15;;;13.03;64.76
76519;BME280;67029;51.054;13.798;2024-02-15T07:35:13;100712.44;;;13.11;64.70
76519;BME280;67029;51.054;13.798;2024-02-15T07:37:52;100712.63;;;13.19;64.75
76519;BME280;67029;51.054;13.798;2024-02-15T07:40:14;100714.67;;;13.29;64.81
76519;BME280;67029;51.054;13.798;2024-02-15T07:42:44;100714.62;;;13.26;64.61
76519;BME280;67029;51.054;13.798;2024-02-15T07:45:14;100716.39;;;13.27;64.52
76519;BME280;67029;51.054;13.798;2024-02-15T07:47:47;100717.88;;;13.37;64.44
76519;BME280;67029;51.054;13.798;2024-02-15T07:50:18;100717.53;;;13.44;64.41
76519;BME280;67029;51.054;13.798;2024-02-15T07:52:45;100719.24;;;13.52;64.26
76519;BME280;67029;51.054;13.798;2024-02-15T07:55:15;100719.23;;;13.58;63.96
76519;BME280;67029;51.054;13.798;2024-02-15T07:57:45;100720.97;;;13.64;63.93
76519;BME280;67029;51.054;13.798;2024-02-15T08:00:15;100722.70;;;13.67;63.76
76519;BME280;67029;51.054;13.798;2024-02-15T08:02:45;100722.28;;;13.67;63.83
76519;BME280;67029;51.054;13.798;2024-02-15T08:05:15;100718.87;;;13.67;63.69
76519;BME280;67029;51.054;13.798;2024-02-15T08:07:45;100720.58;;;13.72;63.66
76519;BME280;67029;51.054;13.798;2024-02-15T08:10:15;100718.95;;;13.77;63.55
76519;BME280;67029;51.054;13.798;2024-02-15T08:12:46;100717.30;;;13.61;64.00
76519;BME280;67029;51.054;13.798;2024-02-15T08:15:16;100715.89;;;13.55;64.46
76519;BME280;67029;51.054;13.798;2024-02-15T08:17:46;100708.55;;;13.48;64.63
76519;BME280;67029;51.054;13.798;2024-02-15T08:20:16;100701.48;;;13.44;64.89
76519;BME280;67029;51.054;13.798;2024-02-15T08:22:46;100699.75;;;13.47;65.00
76519;BME280;67029;51.054;13.798;2024-02-15T08:25:16;100693.83;;;13.36;65.59
76519;BME280;67029;51.054;13.798;2024-02-15T08:27:47;100693.64;;;13.50;65.67
76519;BME280;67029;51.054;13.798;2024-02-15T08:30:16;100689.31;;;13.71;64.99
76519;BME280;67029;51.054;13.798;2024-02-15T08:32:46;100688.11;;;13.89;64.57
76519;BME280;67029;51.054;13.798;2024-02-15T08:35:16;100684.26;;;14.09;64.45
76519;BME280;67029;51.054;13.798;2024-02-15T08:37:46;100685.36;;;14.28;63.94
76519;BME280;67029;51.054;13.798;2024-02-15T08:40:16;100684.88;;;14.38;63.72
76519;BME280;67029;51.054;13.798;2024-02-15T08:42:46;100690.97;;;14.46;64.07
76519;BME280;67029;51.054;13.798;2024-02-15T08:45:17;100695.29;;;14.66;63.86
76519;BME280;67029;51.054;13.798;2024-02-15T08:47:46;100695.08;;;15.01;63.59
76519;BME280;67029;51.054;13.798;2024-02-15T08:50:16;100695.74;;;15.49;62.97
76519;BME280;67029;51.054;13.798;2024-02-15T08:52:46;100696.11;;;15.94;62.13
76519;BME280;67029;51.054;13.798;2024-02-15T08:55:17;100695.62;;;16.51;61.18
76519;BME280;67029;51.054;13.798;2024-02-15T08:57:46;100702.05;;;17.00;60.37
76519;BME280;67029;51.054;13.798;2024-02-15T09:00:17;100701.14;;;17.31;59.17
76519;BME280;67029;51.054;13.798;2024-02-15T09:02:47;100700.55;;;17.45;58.29
76519;BME280;67029;51.054;13.798;2024-02-15T09:05:17;100699.26;;;17.58;57.60
76519;BME280;67029;51.054;13.798;2024-02-15T09:07:46;100706.38;;;17.71;56.67
76519;BME280;67029;51.054;13.798;2024-02-15T09:10:17;100705.88;;;17.83;56.16
76519;BME280;67029;51.054;13.798;2024-02-15T09:12:47;100706.91;;;17.89;56.07
76519;BME280;67029;51.054;13.798;2024-02-15T09:15:17;100713.30;;;17.94;55.90
76519;BME280;67029;51.054;13.798;2024-02-15T09:17:47;100709.95;;;17.83;55.72
76519;BME280;67029;51.054;13.798;2024-02-15T09:20:17;100708.05;;;17.71;55.74
76519;BME280;67029;51.054;13.798;2024-02-15T09:22:49;100710.41;;;17.68;55.77
76519;BME280;67029;51.054;13.798;2024-02-15T09:25:21;100709.20;;;17.68;55.74
76519;BME280;67029;51.054;13.798;2024-02-15T09:27:49;100708.47;;;17.67;55.75
76519;BME280;67029;51.054;13.798;2024-02-15T09:30:19;100706.88;;;17.62;55.67
76519;BME280;67029;51.054;13.798;2024-02-15T09:32:49;100705.58;;;17.48;55.96
76519;BME280;67029;51.054;13.798;2024-02-15T09:35:19;100703.04;;;17.45;56.04
76519;BME280;67029;51.054;13.798;2024-02-15T09:37:49;100704.14;;;17.45;56.10
76519;BME280;67029;51.054;13.798;2024-02-15T09:40:19;100711.02;;;17.46;56.13
76519;BME280;67029;51.054;13.798;2024-02-15T09:42:49;100713.39;;;17.47;56.07
76519;BME280;67029;51.054;13.798;2024-02-15T09:45:19;100710.66;;;17.44;56.05
76519;BME280;67029;51.054;13.798;2024-02-15T09:47:49;100715.89;;;17.22;56.16
76519;BME280;67029;51.054;13.798;2024-02-15T09:50:19;100720.15;;;17.10;56.51
76519;BME280;67029;51.054;13.798;2024-02-15T09:52:50;100722.47;;;17.10;56.57
76519;BME280;67029;51.054;13.798;2024-02-15T09:55:20;100721.02;;;17.12;56.53
76519;BME280;67029;51.054;13.798;2024-02-15T09:57:50;100722.46;;;17.10;56.58
76519;BME280;67029;51.054;13.798;2024-02-15T10:00:20;100724.27;;;17.09;56.63
76519;BME280;67029;51.054;13.798;2024-02-15T10:02:51;100724.75;;;17.10;56.54
76519;BME280;67029;51.054;13.798;2024-02-15T10:05:21;100720.03;;;17.03;56.55
76519;BME280;67029;51.054;13.798;2024-02-15T10:07:51;100717.61;;;16.86;56.75
76519;BME280;67029;51.054;13.798;2024-02-15T10:10:24;100718.64;;;16.67;57.15
76519;BME280;67029;51.054;13.798;2024-02-15T10:12:53;100709.98;;;16.66;57.45
76519;BME280;67029;51.054;13.798;2024-02-15T10:15:28;100708.47;;;16.71;57.40
76519;BME280;67029;51.054;13.798;2024-02-15T10:17:56;100703.44;;;16.63;57.42
76519;BME280;67029;51.054;13.798;2024-02-15T10:20:23;100710.64;;;16.53;57.79
76519;BME280;67029;51.054;13.798;2024-02-15T10:23:09;100707.26;;;16.47;57.91
76519;BME280;67029;51.054;13.798;2024-02-15T10:25:26;100708.61;;;16.48;58.11
76519;BME280;67029;51.054;13.798;2024-02-15T10:28:04;100705.62;;;16.51;58.09
76519;BME280;67029;51.054;13.798;2024-02-15T10:30:24;100702.86;;;16.45;58.23
76519;BME280;67029;51.054;13.798;2024-02-15T10:32:54;100706.21;;;16.29;58.35
76519;BME280;67029;51.054;13.798;2024-02-15T10:35:24;100704.43;;;16.29;58.54
76519;BME280;67029;51.054;13.798;2024-02-15T10:38:11;100707.06;;;16.37;58.52
76519;BME280;67029;51.054;13.798;2024-02-15T10:40:24;100704.66;;;16.38;58.42
76519;BME280;67029;51.054;13.798;2024-02-15T10:42:58;100709.30;;;16.34;58.44
76519;BME280;67029;51.054;13.798;2024-02-15T10:45:25;100704.36;;;16.31;58.54
76519;BME280;67029;51.054;13.798;2024-02-15T10:47:55;100693.55;;;16.38;58.45
76519;BME280;67029;51.054;13.798;2024-02-15T10:50:25;100695.92;;;16.39;58.25
76519;BME280;67029;51.054;13.798;2024-02-15T10:52:57;100694.28;;;16.37;58.40
76519;BME280;67029;51.054;13.798;2024-02-15T10:55:40;100680.38;;;16.34;58.36
76519;BME280;67029;51.054;13.798;2024-02-15T10:58:01;100686.86;;;16.34;58.50
76519;BME280;67029;51.054;13.798;2024-02-15T11:00:28;100686.61;;;16.37;58.55
76519;BME280;67029;51.054;13.798;2024-02-15T11:03:01;100681.05;;;16.43;58.46
76519;BME280;67029;51.054;13.798;2024-02-15T11:05:32;100684.98;;;16.53;58.33
76519;BME280;67029;51.054;13.798;2024-02-15T11:07:58;100679.77;;;16.55;58.12
76519;BME280;67029;51.054;13.798;2024-02-15T11:10:28;100677.77;;;16.54;58.19
76519;BME280;67029;51.054;13.798;2024-02-15T11:12:59;100677.05;;;16.58;58.20
76519;BME280;67029;51.054;13.798;2024-02-15T11:15:42;100676.06;;;16.62;58.07
76519;BME280;67029;51.054;13.798;2024-02-15T11:17:59;100674.02;;;16.65;58.05
76519;BME280;67029;51.054;13.798;2024-02-15T11:23:00;100678.08;;;16.76;57.95
76519;BME280;67029;51.054;13.798;2024-02-15T11:25:39;100675.64;;;16.84;57.83
76519;BME280;67029;51.054;13.798;2024-02-15T11:30:32;100676.69;;;17.03;57.81
76519;BME280;67029;51.054;13.798;2024-02-15T11:33:27;100672.97;;;17.16;57.64
76519;BME280;67029;51.054;13.798;2024-02-15T11:35:33;100671.34;;;17.33;57.45
76519;BME280;67029;51.054;13.798;2024-02-15T11:38:03;100665.70;;;17.50;57.31
76519;BME280;67029;51.054;13.798;2024-02-15T11:43:03;100656.90;;;17.84;57.05
76519;BME280;67029;51.054;13.798;2024-02-15T11:45:33;100658.75;;;18.03;56.75
76519;BME280;67029;51.054;13.798;2024-02-15T11:48:08;100655.40;;;18.19;56.42
76519;BME280;67029;51.054;13.798;2024-02-15T11:50:34;100656.56;;;18.33;56.20
76519;BME280;67029;51.054;13.798;2024-02-15T11:53:05;100646.62;;;18.45;56.02
76519;BME280;67029;51.054;13.798;2024-02-15T11:55:35;100649.69;;;18.62;55.76
76519;BME280;67029;51.054;13.798;2024-02-15T11:58:06;100652.02;;;18.79;55.61
76519;BME280;67029;51.054;13.798;2024-02-15T12:00:37;100647.46;;;18.97;55.35
76519;BME280;67029;51.054;13.798;2024-02-15T12:03:06;100647.14;;;19.16;55.08
76519;BME280;67029;51.054;13.798;2024-02-15T12:05:36;100640.86;;;19.38;54.34
76519;BME280;67029;51.054;13.798;2024-02-15T12:08:06;100645.95;;;19.54;54.06
76519;BME280;67029;51.054;13.798;2024-02-15T12:10:36;100640.66;;;19.67;53.77
76519;BME280;67029;51.054;13.798;2024-02-15T12:13:07;100640.92;;;19.74;53.56
76519;BME280;67029;51.054;13.798;2024-02-15T12:15:37;100641.31;;;19.77;53.13
76519;BME280;67029;51.054;13.798;2024-02-15T12:18:17;100639.34;;;19.74;53.29
76519;BME280;67029;51.054;13.798;2024-02-15T12:20:37;100638.97;;;19.65;52.94
76519;BME280;67029;51.054;13.798;2024-02-15T12:23:07;100638.42;;;19.67;52.95
76519;BME280;67029;51.054;13.798;2024-02-15T12:25:37;100634.03;;;19.75;52.85
76519;BME280;67029;51.054;13.798;2024-02-15T12:28:12;100629.39;;;19.82;52.67
76519;BME280;67029;51.054;13.798;2024-02-15T12:30:37;100627.94;;;19.87;52.51
76519;BME280;67029;51.054;13.798;2024-02-15T12:33:11;100625.23;;;19.89;52.02
76519;BME280;67029;51.054;13.798;2024-02-15T12:35:38;100621.23;;;19.85;51.89
76519;BME280;67029;51.054;13.798;2024-02-15T12:38:08;100617.91;;;19.87;51.89
76519;BME280;67029;51.054;13.798;2024-02-15T12:40:39;100612.44;;;19.92;51.81
76519;BME280;67029;51.054;13.798;2024-02-15T12:43:09;100611.91;;;19.96;51.82
76519;BME280;67029;51.054;13.798;2024-02-15T12:45:40;100613.67;;;20.02;51.78
76519;BME280;67029;51.054;13.798;2024-02-15T12:48:09;100614.52;;;20.00;51.50
76519;BME280;67029;51.054;13.798;2024-02-15T12:50:40;100615.94;;;20.05;51.09
76519;BME280;67029;51.054;13.798;2024-02-15T12:53:09;100611.83;;;20.08;50.63
76519;BME280;67029;51.054;13.798;2024-02-15T12:55:39;100613.05;;;20.04;50.65
76519;BME280;67029;51.054;13.798;2024-02-15T12:58:13;100612.40;;;20.02;50.79
76519;BME280;67029;51.054;13.798;2024-02-15T13:00:40;100611.36;;;19.97;50.79
76519;BME280;67029;51.054;13.798;2024-02-15T13:03:12;100609.38;;;19.86;51.03